Time;durP1;ratioP1;P1;durP2;ratioP2;P2;SDS_P1;SDS_P2;PMS_P1;PMS_P2;Temp;Humidity;BMP_temperature;BMP_pressure;BME280_temperature;BME280_humidity;BME280_pressure;Samples;Min_cycle;Max_cycle;Signal;HPM_P1;HPM_P2
2024/01/30 00:04:50;;;;;;;4.05;2.03;;;;;;;-6.65;91.60;102428.66;10257757;29;20054;-69
2024/01/30 00:09:51;;;;;;;2.83;1.85;;;;;;;-6.77;91.61;102423.53;10258250;29;20146;-69
2024/01/30 00:14:51;;;;;;;3.97;1.70;;;;;;;-6.92;91.49;102424.44;10257964;29;20518;-69
2024/01/30 00:19:52;;;;;;;3.67;2.00;;;;;;;-7.04;91.66;102416.75;10257843;29;20476;-69
2024/01/30 00:24:53;;;;;;;4.60;2.10;;;;;;;-6.98;91.81;102432.22;10258055;28;20078;-69
2024/01/30 00:29:53;;;;;;;3.55;2.15;;;;;;;-7.06;91.74;102434.81;10257025;29;20075;-69
2024/01/30 00:34:54;;;;;;;4.65;1.73;;;;;;;-7.17;91.77;102437.44;10257276;29;20062;-69
2024/01/30 00:39:55;;;;;;;4.20;2.30;;;;;;;-7.29;92.06;102436.63;10257661;29;20042;-72
2024/01/30 00:44:56;;;;;;;3.33;1.63;;;;;;;-7.30;92.07;102445.22;10256679;29;20459;-68
2024/01/30 00:49:56;;;;;;;3.15;1.95;;;;;;;-7.44;91.56;102440.94;10255929;28;20054;-69
2024/01/30 00:54:57;;;;;;;3.03;1.80;;;;;;;-7.54;91.77;102446.97;10256513;29;20040;-68
2024/01/30 00:59:58;;;;;;;4.95;2.30;;;;;;;-7.79;92.07;102445.25;10254911;29;20423;-70
2024/01/30 01:04:58;;;;;;;3.80;2.00;;;;;;;-7.81;91.65;102446.13;10254354;29;20452;-68
2024/01/30 01:09:59;;;;;;;3.95;2.05;;;;;;;-7.90;91.90;102447.81;10255964;28;20130;-68
2024/01/30 01:15:00;;;;;;;3.92;2.33;;;;;;;-8.04;92.24;102445.25;10255899;28;20039;-69
2024/01/30 01:20:00;;;;;;;5.70;1.83;;;;;;;-8.29;92.21;102421.97;10254850;29;20043;-69
2024/01/30 01:25:01;;;;;;;3.25;1.80;;;;;;;-8.65;91.71;102385.84;10255082;29;20074;-69
2024/01/30 01:30:05;;;;;;;4.30;2.13;;;;;;;-8.54;91.88;102453.75;10255238;28;20114;-68
2024/01/30 01:35:06;;;;;;;4.80;1.80;;;;;;;-8.91;91.94;102425.28;10255260;28;20122;-68
2024/01/30 01:40:07;;;;;;;3.47;1.77;;;;;;;-8.86;91.72;102459.63;10253764;28;20126;-69
2024/01/30 01:45:08;;;;;;;3.88;1.90;;;;;;;-8.97;91.45;102466.44;10249109;28;20504;-68
2024/01/30 01:50:09;;;;;;;3.55;1.83;;;;;;;-9.34;91.65;102399.28;10240134;29;20389;-68
2024/01/30 01:55:11;;;;;;;5.03;2.22;;;;;;;-8.85;92.08;102466.50;10254016;29;20043;-68
2024/01/30 02:00:12;;;;;;;5.65;2.60;;;;;;;-9.13;92.07;102433.72;10252955;28;20043;-68
2024/01/30 02:05:15;;;;;;;9.32;3.33;;;;;;;-9.08;92.07;102455.22;10253945;29;20047;-69
2024/01/30 02:10:15;;;;;;;11.02;3.63;;;;;;;-9.24;92.39;102415.66;10253940;29;20420;-68
2024/01/30 02:15:16;;;;;;;10.55;3.88;;;;;;;-9.08;93.47;102424.31;10252169;29;20035;-68
2024/01/30 02:20:17;;;;;;;7.95;3.42;;;;;;;-8.68;94.00;102470.88;10252793;28;20050;-69
2024/01/30 02:25:18;;;;;;;22.38;4.63;;;;;;;-8.58;94.13;102457.19;10249650;28;20496;-71
2024/01/30 02:30:19;;;;;;;8.48;3.42;;;;;;;-8.77;94.46;102407.28;10245131;29;20043;-72
2024/01/30 02:35:19;;;;;;;12.15;4.50;;;;;;;-8.47;94.88;102450.31;10246203;28;20039;-71
2024/01/30 02:40:20;;;;;;;17.23;5.20;;;;;;;-8.82;94.53;102409.84;10246194;28;20464;-70
2024/01/30 02:45:21;;;;;;;20.75;6.63;;;;;;;-8.69;94.32;102449.41;10246179;28;20059;-71
2024/01/30 02:50:21;;;;;;;27.13;5.35;;;;;;;-8.80;94.21;102466.50;10248613;28;20046;-70
2024/01/30 02:55:22;;;;;;;47.40;5.38;;;;;;;-9.16;94.36;102433.72;10250329;28;20071;-79
2024/01/30 03:00:24;;;;;;;14.00;4.20;;;;;;;-9.21;94.20;102475.75;10244045;28;20053;-71
2024/01/30 03:05:24;;;;;;;8.55;2.00;;;;;;;-9.53;94.24;102467.78;10251349;28;20504;-70
2024/01/30 03:10:25;;;;;;;13.43;2.63;;;;;;;-10.29;94.14;102400.28;10251219;28;20039;-72
2024/01/30 03:15:26;;;;;;;9.95;2.35;;;;;;;-10.48;94.03;102433.50;10251665;29;20047;-69
2024/01/30 03:20:26;;;;;;;28.48;3.08;;;;;;;-10.41;94.01;102444.72;10250925;28;20039;-70
2024/01/30 03:25:27;;;;;;;47.50;4.97;;;;;;;-10.23;94.83;102482.56;10250938;28;20059;-71
2024/01/30 03:30:28;;;;;;;16.83;3.08;;;;;;;-10.53;95.19;102424.88;10250639;28;20079;-69
2024/01/30 03:35:29;;;;;;;27.13;3.83;;;;;;;-10.07;95.37;102501.59;10251290;28;20042;-71
2024/01/30 03:40:29;;;;;;;23.20;4.03;;;;;;;-10.01;95.15;102493.94;10251080;29;20047;-70
2024/01/30 03:45:30;;;;;;;26.50;3.92;;;;;;;-9.93;95.79;102476.84;10251035;29;20095;-73
2024/01/30 03:50:31;;;;;;;12.20;3.45;;;;;;;-9.80;95.70;102494.16;10249893;29;20067;-71
2024/01/30 03:55:32;;;;;;;50.15;5.03;;;;;;;-9.78;95.73;102481.28;10251366;28;20130;-71
2024/01/30 04:00:32;;;;;;;12.27;3.33;;;;;;;-9.88;96.08;102440.06;10251237;28;20047;-70
2024/01/30 04:05:33;;;;;;;24.90;4.18;;;;;;;-9.79;95.55;102436.72;10250736;28;20043;-69
2024/01/30 04:10:34;;;;;;;7.13;3.20;;;;;;;-9.37;95.51;102493.63;10251571;28;20035;-70
2024/01/30 04:15:35;;;;;;;12.20;3.63;;;;;;;-9.36;95.92;102485.06;10250974;28;20087;-72
2024/01/30 04:20:36;;;;;;;35.53;4.03;;;;;;;-9.35;95.78;102505.66;10248984;28;20094;-71
2024/01/30 04:25:36;;;;;;;9.63;4.05;;;;;;;-9.32;95.72;102495.41;10257197;28;20527;-70
2024/01/30 04:30:37;;;;;;;10.57;5.22;;;;;;;-9.20;96.01;102504.91;10255341;29;20047;-79
2024/01/30 04:35:38;;;;;;;10.00;3.47;;;;;;;-9.24;96.02;102501.47;10256781;29;20174;-71
2024/01/30 04:40:39;;;;;;;12.98;3.45;;;;;;;-9.08;95.77;102506.72;10249138;29;20042;-72
2024/01/30 04:45:39;;;;;;;9.38;3.05;;;;;;;-9.21;95.49;102509.22;10257045;28;20050;-72
2024/01/30 04:50:40;;;;;;;6.85;2.17;;;;;;;-9.15;95.17;102499.78;10256931;28;20460;-72
2024/01/30 04:55:41;;;;;;;7.88;1.85;;;;;;;-9.16;95.31;102513.53;10256774;28;20134;-73
2024/01/30 05:00:41;;;;;;;18.02;2.72;;;;;;;-9.14;95.74;102506.69;10256729;28;20066;-72
2024/01/30 05:05:42;;;;;;;6.13;2.22;;;;;;;-9.09;95.38;102507.53;10256182;28;20055;-71
2024/01/30 05:10:43;;;;;;;8.93;2.58;;;;;;;-9.08;95.53;102496.41;10256388;28;20050;-71
2024/01/30 05:15:44;;;;;;;11.55;1.70;;;;;;;-9.01;94.90;102516.19;10255794;28;20050;-73
2024/01/30 05:20:44;;;;;;;3.72;1.65;;;;;;;-9.05;94.81;102527.34;10256269;28;20039;-72
2024/01/30 05:25:45;;;;;;;9.18;1.40;;;;;;;-9.18;94.96;102531.53;10255527;28;20153;-72
2024/01/30 05:30:45;;;;;;;35.92;4.25;;;;;;;-9.21;94.13;102534.09;10254753;28;20075;-72
2024/01/30 05:35:46;;;;;;;9.52;2.83;;;;;;;-9.26;94.39;102538.34;10253510;28;20110;-72
2024/01/30 05:40:47;;;;;;;27.10;2.60;;;;;;;-9.30;94.63;102506.56;10254621;28;20050;-71
2024/01/30 05:45:47;;;;;;;6.40;1.70;;;;;;;-9.07;94.14;102534.19;10254878;28;20059;-72
2024/01/30 05:50:48;;;;;;;4.72;1.90;;;;;;;-9.05;94.77;102537.63;10254843;28;20047;-72
2024/01/30 05:55:49;;;;;;;11.90;3.05;;;;;;;-9.30;94.52;102482.53;10255106;28;20067;-72
2024/01/30 06:00:50;;;;;;;11.30;2.50;;;;;;;-8.93;94.77;102517.09;10255107;28;20114;-72
2024/01/30 06:05:50;;;;;;;23.13;2.58;;;;;;;-8.65;94.42;102543.88;10253320;28;20051;-72
2024/01/30 06:10:52;;;;;;;3.63;1.48;;;;;;;-8.44;94.05;102527.66;10253247;28;20043;-72
2024/01/30 06:15:52;;;;;;;3.33;1.65;;;;;;;-8.19;93.74;102532.91;10253715;28;20508;-72
2024/01/30 06:20:53;;;;;;;2.97;1.60;;;;;;;-8.37;93.80;102471.81;10253139;28;20039;-72
2024/01/30 06:25:54;;;;;;;4.95;1.55;;;;;;;-7.49;93.25;102538.19;10252628;28;20043;-73
2024/01/30 06:30:54;;;;;;;2.97;1.48;;;;;;;-7.24;92.54;102543.34;10253216;28;20031;-73
2024/01/30 06:35:55;;;;;;;3.17;1.55;;;;;;;-6.98;91.37;102541.59;10252949;28;20571;-73
2024/01/30 06:40:56;;;;;;;7.00;2.20;;;;;;;-7.50;90.84;102535.59;10253259;28;20093;-75
2024/01/30 06:45:57;;;;;;;5.13;2.05;;;;;;;-7.54;91.09;102539.88;10252582;28;20077;-73
2024/01/30 06:50:57;;;;;;;16.50;2.30;;;;;;;-7.16;90.30;102515.78;10251957;28;20079;-74
2024/01/30 06:55:59;;;;;;;3.00;1.50;;;;;;;-7.00;89.12;102533.00;10252279;28;20071;-74
2024/01/30 07:01:00;;;;;;;7.60;1.80;;;;;;;-6.72;88.22;102527.78;10252218;28;20039;-74
2024/01/30 07:06:00;;;;;;;7.43;2.00;;;;;;;-6.48;87.23;102519.94;10252414;28;20435;-74
2024/01/30 07:11:01;;;;;;;5.18;1.77;;;;;;;-6.35;87.32;102523.31;10251941;28;20453;-73
2024/01/30 07:16:02;;;;;;;3.83;1.80;;;;;;;-6.21;86.22;102520.69;10251978;28;20047;-74
2024/01/30 07:21:03;;;;;;;6.47;1.90;;;;;;;-6.03;85.47;102524.91;10251134;28;20043;-74
2024/01/30 07:26:06;;;;;;;3.88;1.70;;;;;;;-5.84;84.71;102469.53;10251763;28;20426;-74
2024/01/30 07:31:07;;;;;;;5.20;1.88;;;;;;;-5.37;84.31;102496.78;10251661;28;20082;-73
2024/01/30 07:36:08;;;;;;;3.75;1.80;;;;;;;-5.22;83.93;102495.78;10251471;28;20071;-74
2024/01/30 07:41:09;;;;;;;6.25;1.80;;;;;;;-5.29;82.63;102476.84;10250855;28;20105;-74
2024/01/30 07:46:10;;;;;;;2.92;1.60;;;;;;;-5.33;81.56;102472.53;10251792;28;20067;-74
2024/01/30 07:51:10;;;;;;;6.40;2.08;;;;;;;-5.48;82.04;102492.56;10251296;28;20043;-74
2024/01/30 07:56:11;;;;;;;8.40;2.00;;;;;;;-5.50;82.68;102508.13;10251707;28;20039;-74
2024/01/30 08:01:12;;;;;;;3.25;1.80;;;;;;;-5.66;82.14;102445.22;10258945;28;20039;-74
2024/01/30 08:06:13;;;;;;;4.60;2.40;;;;;;;-5.44;81.87;102479.56;10258737;28;20058;-74
2024/01/30 08:11:13;;;;;;;5.50;2.10;;;;;;;-5.42;81.68;102482.13;10258443;28;20074;-73
2024/01/30 08:16:14;;;;;;;3.78;1.85;;;;;;;-5.44;81.07;102489.06;10258137;28;20381;-73
2024/01/30 08:21:15;;;;;;;6.85;1.90;;;;;;;-5.48;80.93;102482.19;10258259;28;20039;-73
2024/01/30 08:26:16;;;;;;;3.55;1.88;;;;;;;-6.01;79.73;102378.25;10257410;28;20047;-73
2024/01/30 08:31:17;;;;;;;3.97;1.60;;;;;;;-5.12;79.09;102466.28;10257303;28;20035;-73
2024/01/30 08:36:18;;;;;;;2.95;1.70;;;;;;;-5.38;78.94;102442.41;10257992;28;20054;-73
2024/01/30 08:41:19;;;;;;;3.78;1.98;;;;;;;-5.08;78.67;102459.38;10257287;28;20043;-73
2024/01/30 08:46:20;;;;;;;3.60;1.85;;;;;;;-5.11;78.33;102451.63;10257513;28;20066;-73
2024/01/30 08:51:20;;;;;;;2.60;1.27;;;;;;;-4.98;77.83;102444.56;10257293;28;20071;-73
2024/01/30 08:56:22;;;;;;;3.17;1.40;;;;;;;-4.97;77.51;102436.75;10256757;28;20051;-73
2024/01/30 09:01:22;;;;;;;4.60;1.80;;;;;;;-4.73;77.46;102439.94;10256069;28;20083;-73
2024/01/30 09:06:26;;;;;;;4.18;2.15;;;;;;;-4.80;76.12;102422.75;10256186;28;20125;-74
2024/01/30 09:11:27;;;;;;;9.07;4.78;;;;;;;-4.31;76.40;102435.94;10256469;28;20086;-74
2024/01/30 09:16:28;;;;;;;3.45;1.92;;;;;;;-4.62;76.71;102430.31;10256182;28;20070;-73
2024/01/30 09:21:29;;;;;;;2.85;1.50;;;;;;;-4.44;76.22;102424.88;10255279;28;20090;-74
2024/01/30 09:26:29;;;;;;;4.63;1.60;;;;;;;-4.85;75.78;102378.72;10255779;28;20047;-73
2024/01/30 09:31:30;;;;;;;3.65;1.60;;;;;;;-4.61;75.45;102411.28;10255515;28;20035;-74
2024/01/30 09:36:32;;;;;;;3.17;1.50;;;;;;;-4.38;75.34;102419.59;10255696;28;20069;-73
2024/01/30 09:41:36;;;;;;;2.92;1.60;;;;;;;-4.42;74.85;102415.34;10254377;28;20043;-74
2024/01/30 09:46:38;;;;;;;3.95;1.58;;;;;;;-4.32;74.25;102405.69;10255011;28;20051;-73
2024/01/30 09:51:39;;;;;;;2.83;1.58;;;;;;;-3.69;73.69;102400.34;10254158;28;20127;-74
2024/01/30 09:56:39;;;;;;;3.53;1.17;;;;;;;-3.53;72.64;102406.16;10254273;28;20035;-74
2024/01/30 10:01:42;;;;;;;3.08;1.20;;;;;;;-3.86;73.25;102394.56;10254316;28;20512;-73
2024/01/30 10:06:43;;;;;;;3.20;1.25;;;;;;;-3.71;73.07;102391.75;10253969;28;20095;-74
2024/01/30 10:11:44;;;;;;;3.15;1.30;;;;;;;-3.55;72.08;102386.28;10253976;28;20090;-73
2024/01/30 10:16:46;;;;;;;3.63;1.60;;;;;;;-3.40;71.42;102374.75;10253697;28;20097;-73
2024/01/30 10:21:47;;;;;;;3.15;1.42;;;;;;;-3.56;72.33;102380.25;10253369;28;20047;-74
2024/01/30 10:26:47;;;;;;;3.17;1.40;;;;;;;-3.08;71.97;102368.91;10252724;28;20503;-74
2024/01/30 10:31:59;;;;;;;3.13;1.55;;;;;;;-3.23;69.28;102315.47;10253129;28;20420;-74
2024/01/30 10:37:15;;;;;;;4.00;1.73;;;;;;;-3.14;68.36;102356.03;10253186;28;20050;-74
2024/01/30 10:42:18;;;;;;;6.07;1.70;;;;;;;-3.27;70.75;102348.47;10252174;28;20428;-74
2024/01/30 10:47:25;;;;;;;3.90;1.73;;;;;;;-3.35;70.29;102345.19;10253142;28;20067;-74
2024/01/30 10:52:27;;;;;;;2.72;1.40;;;;;;;-3.38;71.41;102339.19;10252747;28;20039;-74
2024/01/30 10:57:28;;;;;;;3.38;1.67;;;;;;;-3.34;70.68;102340.84;10252360;28;20082;-74
2024/01/30 11:02:29;;;;;;;3.30;1.80;;;;;;;-3.46;70.14;102339.34;10251587;28;20046;-74
2024/01/30 11:07:30;;;;;;;3.50;1.50;;;;;;;-3.89;70.24;102288.19;10251629;28;20039;-74
2024/01/30 11:12:34;;;;;;;3.80;1.95;;;;;;;-3.73;70.34;102331.19;10252075;28;20436;-74
2024/01/30 11:17:47;;;;;;;7.30;1.50;;;;;;;-3.58;68.89;102326.59;10252454;28;20503;-74
2024/01/30 11:22:51;;;;;;;3.03;1.55;;;;;;;-3.78;70.17;102327.78;10252086;28;20049;-74
2024/01/30 11:27:53;;;;;;;4.15;1.92;;;;;;;-4.04;70.45;102324.78;10250983;28;20105;-74
2024/01/30 11:33:13;;;;;;;4.50;1.52;;;;;;;-3.81;69.30;102320.06;10256299;28;20047;-74
2024/01/30 11:38:15;;;;;;;4.13;1.48;;;;;;;-4.08;70.54;102308.41;10257961;29;20047;-74
2024/01/30 11:43:17;;;;;;;3.60;1.30;;;;;;;-3.99;70.20;102295.28;10259227;28;20530;-74
2024/01/30 11:48:18;;;;;;;3.17;1.38;;;;;;;-4.25;69.88;102253.34;10259366;28;20047;-74
2024/01/30 11:53:19;;;;;;;3.53;1.27;;;;;;;-4.07;70.16;102304.06;10259315;28;20492;-74
2024/01/30 11:58:20;;;;;;;3.20;1.50;;;;;;;-4.27;70.47;102297.50;10258952;28;20043;-74
2024/01/30 12:03:21;;;;;;;2.40;0.90;;;;;;;-4.23;69.90;102304.34;10258243;29;20381;-74
2024/01/30 12:08:21;;;;;;;3.70;1.23;;;;;;;-4.45;69.84;102284.81;10257831;28;20487;-73
2024/01/30 12:13:22;;;;;;;2.20;1.02;;;;;;;-4.53;69.68;102302.25;10256184;28;20067;-71
2024/01/30 12:18:23;;;;;;;3.20;1.05;;;;;;;-4.51;70.09;102316.06;10257480;29;20050;-70
2024/01/30 12:23:25;;;;;;;5.05;1.60;;;;;;;-4.47;69.52;102310.78;10257994;29;20050;-70
2024/01/30 12:28:26;;;;;;;3.95;0.95;;;;;;;-4.42;69.68;102308.97;10256393;28;20043;-70
2024/01/30 12:33:28;;;;;;;3.30;1.25;;;;;;;-4.90;68.99;102248.34;10257780;29;20067;-70
2024/01/30 12:38:29;;;;;;;1.83;0.88;;;;;;;-4.69;69.31;102309.41;10249463;28;20040;-71
2024/01/30 12:43:30;;;;;;;1.63;0.80;;;;;;;-4.70;69.13;102302.47;10247205;28;20595;-70
2024/01/30 12:48:30;;;;;;;2.15;0.90;;;;;;;-4.57;68.73;102301.44;10256089;29;20141;-70
2024/01/30 12:53:31;;;;;;;3.70;0.88;;;;;;;-4.68;68.97;102301.59;10254219;29;20043;-72
2024/01/30 12:58:32;;;;;;;1.50;0.70;;;;;;;-4.66;68.46;102309.34;10252956;28;20067;-70
2024/01/30 13:03:33;;;;;;;2.20;0.90;;;;;;;-4.65;68.44;102321.44;10241491;28;20386;-70
2024/01/30 13:08:34;;;;;;;2.53;0.90;;;;;;;-4.74;68.43;102291.31;10249209;28;20051;-70
2024/01/30 13:13:35;;;;;;;11.88;1.27;;;;;;;-4.68;68.80;102286.03;10255815;28;20057;-71
2024/01/30 13:18:36;;;;;;;6.18;1.92;;;;;;;-4.74;69.02;102288.72;10256479;28;20078;-70
2024/01/30 13:23:37;;;;;;;9.57;1.70;;;;;;;-5.18;69.04;102225.38;10255999;28;20046;-70
2024/01/30 13:28:37;;;;;;;8.73;1.45;;;;;;;-4.83;69.32;102292.28;10255535;28;20043;-73
2024/01/30 13:33:38;;;;;;;13.45;1.70;;;;;;;-4.87;69.54;102290.63;10250325;28;20039;-69
2024/01/30 13:38:39;;;;;;;15.60;1.73;;;;;;;-5.37;69.76;102258.47;10248111;28;20442;-69
2024/01/30 13:43:40;;;;;;;14.52;1.70;;;;;;;-5.42;69.71;102293.06;10251306;28;20055;-69
2024/01/30 13:48:41;;;;;;;5.20;1.02;;;;;;;-5.65;70.04;102262.25;10254775;28;20050;-69
2024/01/30 13:53:41;;;;;;;21.55;1.77;;;;;;;-5.49;69.82;102309.56;10252683;28;20051;-69
2024/01/30 13:58:42;;;;;;;13.77;1.77;;;;;;;-5.81;69.43;102308.16;10254147;29;20484;-69
2024/01/30 14:03:43;;;;;;;4.65;1.13;;;;;;;-6.03;69.83;102303.22;10254174;28;20094;-69
2024/01/30 14:08:44;;;;;;;5.15;1.58;;;;;;;-6.14;70.35;102286.94;10253675;28;20043;-69
2024/01/30 14:13:44;;;;;;;4.03;1.38;;;;;;;-6.23;70.73;102293.03;10253880;28;20050;-69
2024/01/30 14:18:45;;;;;;;5.95;1.63;;;;;;;-6.37;70.95;102291.44;10252397;29;20134;-70
2024/01/30 14:23:47;;;;;;;12.32;1.92;;;;;;;-6.51;71.14;102271.72;10253926;28;20082;-69
2024/01/30 14:28:47;;;;;;;15.27;2.13;;;;;;;-6.65;71.73;102276.13;10250280;28;20047;-69
2024/01/30 14:33:48;;;;;;;13.30;1.77;;;;;;;-6.85;72.24;102276.25;10245187;29;20414;-69
2024/01/30 14:38:49;;;;;;;14.95;1.80;;;;;;;-7.39;72.43;102226.63;10230549;28;20039;-70
2024/01/30 14:43:50;;;;;;;3.30;1.30;;;;;;;-7.43;72.65;102248.19;10252487;28;20062;-69
2024/01/30 14:48:51;;;;;;;5.50;1.83;;;;;;;-7.71;73.03;102211.31;10251662;29;20586;-69
2024/01/30 14:53:52;;;;;;;10.68;2.03;;;;;;;-7.30;73.75;102287.69;10252116;28;20638;-69
2024/01/30 14:58:53;;;;;;;6.35;2.53;;;;;;;-7.41;73.99;102298.94;10250409;29;20097;-69
2024/01/30 15:03:55;;;;;;;8.02;2.58;;;;;;;-7.45;74.06;102312.72;10248889;29;20055;-69
2024/01/30 15:08:56;;;;;;;7.95;2.42;;;;;;;-7.46;74.51;102315.31;10251061;28;20043;-69
2024/01/30 15:13:56;;;;;;;10.23;2.80;;;;;;;-7.93;75.22;102252.63;10251951;29;20404;-69
2024/01/30 15:18:57;;;;;;;6.47;2.45;;;;;;;-7.87;75.24;102303.34;10252475;29;20053;-69
2024/01/30 15:23:58;;;;;;;8.02;2.22;;;;;;;-7.97;75.79;102312.84;10252266;29;20081;-69
2024/01/30 15:28:58;;;;;;;5.82;2.20;;;;;;;-8.01;75.76;102318.00;10250915;29;20078;-69
2024/01/30 15:33:59;;;;;;;4.38;2.28;;;;;;;-8.19;76.00;102318.88;10250693;29;20047;-69
2024/01/30 15:39:00;;;;;;;10.48;2.90;;;;;;;-8.53;76.35;102326.59;10251383;28;20035;-69
2024/01/30 15:44:02;;;;;;;12.38;4.82;;;;;;;-9.01;76.86;102293.00;10251200;29;20559;-72
2024/01/30 15:49:04;;;;;;;13.05;4.00;;;;;;;-9.03;76.94;102338.53;10250687;28;20051;-69
2024/01/30 15:54:04;;;;;;;11.93;4.00;;;;;;;-9.17;77.10;102337.59;10249401;29;20090;-69
2024/01/30 15:59:05;;;;;;;11.73;3.15;;;;;;;-9.23;77.27;102348.72;10251048;28;20129;-69
2024/01/30 16:04:06;;;;;;;8.05;3.05;;;;;;;-9.47;77.37;102312.59;10250356;29;20047;-69
2024/01/30 16:09:07;;;;;;;8.10;2.60;;;;;;;-9.31;77.30;102354.69;10250245;28;20078;-70
2024/01/30 16:14:08;;;;;;;9.52;3.50;;;;;;;-9.51;77.03;102336.56;10250543;29;20039;-69
2024/01/30 16:19:09;;;;;;;11.35;3.78;;;;;;;-9.85;77.64;102290.09;10253399;28;20043;-69
2024/01/30 16:24:09;;;;;;;7.45;3.08;;;;;;;-9.75;77.38;102330.44;10257878;28;20075;-70
2024/01/30 16:29:10;;;;;;;10.25;3.30;;;;;;;-9.98;77.94;102327.72;10257976;28;20043;-69
2024/01/30 16:34:11;;;;;;;10.15;3.85;;;;;;;-10.30;78.20;102306.94;10255804;29;20047;-69
2024/01/30 16:39:12;;;;;;;9.68;3.15;;;;;;;-10.58;78.29;102291.28;10258519;28;20134;-70
2024/01/30 16:44:13;;;;;;;6.00;2.72;;;;;;;-10.34;78.67;102318.03;10256789;29;20059;-70
2024/01/30 16:49:14;;;;;;;7.03;2.35;;;;;;;-10.23;78.83;102315.50;10258016;28;20122;-69
2024/01/30 16:54:15;;;;;;;5.15;2.30;;;;;;;-10.45;78.06;102268.28;10256373;29;20130;-69
2024/01/30 16:59:17;;;;;;;7.72;2.33;;;;;;;-10.35;78.18;102300.88;10256661;28;20043;-69
2024/01/30 17:04:21;;;;;;;6.35;1.98;;;;;;;-10.32;78.85;102297.50;10255716;29;20042;-69
2024/01/30 17:09:22;;;;;;;6.53;2.40;;;;;;;-10.35;78.71;102306.03;10255281;29;20047;-70
2024/01/30 17:14:23;;;;;;;6.75;2.03;;;;;;;-10.64;78.09;102310.94;10255940;29;20546;-69
2024/01/30 17:19:24;;;;;;;11.75;2.88;;;;;;;-10.85;78.77;102297.03;10255407;28;20042;-69
2024/01/30 17:24:24;;;;;;;9.70;3.47;;;;;;;-10.74;79.03;102312.53;10254091;29;20050;-70
2024/01/30 17:29:25;;;;;;;16.90;4.93;;;;;;;-10.65;79.67;102294.66;10255059;28;20031;-70
2024/01/30 17:34:27;;;;;;;7.53;3.00;;;;;;;-10.86;79.48;102243.09;10254639;29;20058;-70
2024/01/30 17:39:28;;;;;;;12.35;3.42;;;;;;;-10.66;78.78;102300.63;10254611;28;20046;-70
2024/01/30 17:44:29;;;;;;;8.40;2.92;;;;;;;-11.34;78.58;102224.63;10251454;28;20059;-68
2024/01/30 17:49:29;;;;;;;10.80;3.28;;;;;;;-11.37;78.84;102250.25;10254206;28;20090;-68
2024/01/30 17:54:30;;;;;;;13.10;4.70;;;;;;;-11.51;79.45;102257.81;10254399;29;20455;-68
2024/01/30 17:59:31;;;;;;;16.27;5.80;;;;;;;-11.70;79.27;102242.16;10253860;29;20043;-68
2024/01/30 18:04:32;;;;;;;18.25;5.20;;;;;;;-11.55;79.73;102271.41;10253279;29;20201;-68
2024/01/30 18:09:33;;;;;;;11.15;4.60;;;;;;;-11.59;79.40;102285.06;10254572;29;20403;-68
2024/01/30 18:14:34;;;;;;;10.43;3.83;;;;;;;-11.62;78.95;102264.50;10253961;29;20043;-68
2024/01/30 18:19:34;;;;;;;10.15;2.97;;;;;;;-11.81;78.78;102268.53;10252621;29;20446;-68
2024/01/30 18:24:35;;;;;;;11.80;3.42;;;;;;;-11.92;79.03;102251.31;10247898;29;20440;-68
2024/01/30 18:29:36;;;;;;;7.03;2.88;;;;;;;-11.74;79.73;102256.66;10252723;28;20054;-68
2024/01/30 18:34:37;;;;;;;7.63;2.70;;;;;;;-11.98;79.48;102218.78;10251754;29;20039;-68
2024/01/30 18:39:40;;;;;;;85.68;24.33;;;;;;;-11.90;78.76;102247.94;10252474;28;20396;-68
2024/01/30 18:44:41;;;;;;;147.82;41.08;;;;;;;-12.21;78.55;102233.81;10253052;29;20082;-68
2024/01/30 18:49:42;;;;;;;40.75;12.48;;;;;;;-12.18;78.66;102251.78;10252110;29;20575;-68
2024/01/30 18:54:44;;;;;;;38.88;11.50;;;;;;;-12.26;79.11;102240.59;10251549;28;20062;-68
2024/01/30 18:59:45;;;;;;;19.35;6.18;;;;;;;-12.30;78.97;102236.25;10252582;28;20048;-68
2024/01/30 19:04:49;;;;;;;13.63;4.28;;;;;;;-12.18;79.29;102227.03;10251636;29;20130;-68
2024/01/30 19:09:52;;;;;;;7.10;3.05;;;;;;;-12.15;79.61;102223.66;10252198;29;20046;-68
2024/01/30 19:14:52;;;;;;;7.05;2.13;;;;;;;-12.30;78.69;102215.75;10251506;29;20079;-68
2024/01/30 19:19:53;;;;;;;3.92;1.60;;;;;;;-12.30;78.59;102236.25;10251960;29;20484;-69
2024/01/30 19:24:54;;;;;;;5.18;1.55;;;;;;;-12.57;78.69;102195.72;10252108;29;20039;-68
2024/01/30 19:29:55;;;;;;;2.90;1.38;;;;;;;-12.34;78.30;102232.78;10251501;29;20039;-68
2024/01/30 19:34:56;;;;;;;3.72;1.73;;;;;;;-12.42;78.72;102217.28;10251384;28;20562;-68
2024/01/30 19:39:56;;;;;;;5.72;1.40;;;;;;;-12.42;78.80;102208.75;10252085;29;20043;-68
2024/01/30 19:44:57;;;;;;;3.13;1.20;;;;;;;-12.60;78.62;102199.09;10251366;29;20055;-68
2024/01/30 19:49:58;;;;;;;3.95;1.33;;;;;;;-12.61;78.63;102205.06;10250159;29;20035;-68
2024/01/30 19:54:58;;;;;;;2.55;1.00;;;;;;;-12.82;78.97;102169.75;10256826;28;20047;-68
2024/01/30 20:00:00;;;;;;;3.25;1.25;;;;;;;-12.60;78.87;102178.63;10258402;29;20460;-68
2024/01/30 20:05:01;;;;;;;3.75;1.10;;;;;;;-12.60;78.72;102177.75;10258368;29;20428;-68
2024/01/30 20:10:03;;;;;;;4.40;1.60;;;;;;;-12.58;78.96;102153.91;10258569;29;20043;-68
2024/01/30 20:15:04;;;;;;;2.95;1.17;;;;;;;-12.55;78.95;102150.53;10255820;29;20463;-68
2024/01/30 20:20:10;;;;;;;5.00;1.27;;;;;;;-12.60;78.61;102159.84;10258281;29;20050;-68
2024/01/30 20:25:12;;;;;;;3.63;1.10;;;;;;;-12.55;78.66;102150.53;10257376;29;20042;-68
2024/01/30 20:30:13;;;;;;;2.67;0.90;;;;;;;-12.55;78.94;102133.47;10258197;29;20043;-68
2024/01/30 20:35:14;;;;;;;2.75;0.98;;;;;;;-12.34;78.50;102145.72;10257528;29;20039;-68
2024/01/30 20:40:16;;;;;;;2.72;0.77;;;;;;;-12.19;78.39;102153.59;10258086;28;20129;-68
2024/01/30 20:45:17;;;;;;;3.70;1.00;;;;;;;-12.11;77.97;102156.28;10257242;28;20059;-68
2024/01/30 20:50:17;;;;;;;3.83;0.98;;;;;;;-12.08;77.60;102156.31;10258150;28;20054;-70
2024/01/30 20:55:18;;;;;;;3.95;1.25;;;;;;;-12.14;77.50;102158.78;10256422;29;20099;-68
2024/01/30 21:00:19;;;;;;;5.78;1.70;;;;;;;-12.24;77.24;102151.81;10256711;29;20043;-70
2024/01/30 21:05:22;;;;;;;3.45;1.30;;;;;;;-12.23;77.35;102158.69;10255289;28;20389;-68
2024/01/30 21:10:23;;;;;;;2.45;1.00;;;;;;;-12.27;77.78;102160.31;10256384;29;20106;-69
2024/01/30 21:15:23;;;;;;;6.15;1.30;;;;;;;-12.17;77.92;102156.19;10256440;28;20384;-68
2024/01/30 21:20:24;;;;;;;4.05;1.60;;;;;;;-12.59;77.50;102126.59;10256569;29;20098;-68
2024/01/30 21:25:25;;;;;;;6.28;1.48;;;;;;;-12.38;77.58;102173.81;10255747;29;20054;-68
2024/01/30 21:30:27;;;;;;;5.70;1.60;;;;;;;-12.33;77.86;102182.41;10255197;29;20043;-69
2024/01/30 21:35:28;;;;;;;14.50;2.00;;;;;;;-12.34;77.22;102167.91;10255261;29;20058;-68
2024/01/30 21:40:28;;;;;;;14.65;2.00;;;;;;;-12.84;76.28;102132.19;10254650;29;20042;-68
2024/01/30 21:45:29;;;;;;;13.45;1.33;;;;;;;-13.09;77.06;102096.00;10255016;29;20062;-68
2024/01/30 21:50:30;;;;;;;5.05;1.27;;;;;;;-12.61;77.29;102153.88;10252992;29;20130;-68
2024/01/30 21:55:31;;;;;;;3.65;1.17;;;;;;;-12.65;77.32;102152.97;10254681;28;20134;-68
2024/01/30 22:00:31;;;;;;;3.55;1.50;;;;;;;-13.04;76.90;102111.38;10252691;29;20043;-68
2024/01/30 22:05:32;;;;;;;3.58;1.50;;;;;;;-13.08;77.08;102105.38;10253628;28;20059;-68
2024/01/30 22:10:33;;;;;;;4.78;1.42;;;;;;;-12.93;77.54;102153.38;10254192;28;20130;-68
2024/01/30 22:15:36;;;;;;;3.75;1.20;;;;;;;-13.01;77.73;102153.25;10252980;28;20051;-71
2024/01/30 22:20:37;;;;;;;3.30;1.48;;;;;;;-13.01;77.63;102144.69;10254485;28;20123;-68
2024/01/30 22:25:37;;;;;;;4.20;1.35;;;;;;;-13.13;77.80;102123.22;10253555;29;20133;-68
2024/01/30 22:30:38;;;;;;;3.60;1.10;;;;;;;-12.95;77.85;102152.47;10252672;29;20039;-68
2024/01/30 22:35:39;;;;;;;3.83;1.08;;;;;;;-13.37;76.97;102097.25;10253911;29;20077;-68
2024/01/30 22:40:40;;;;;;;8.18;1.45;;;;;;;-13.23;77.71;102118.78;10252384;29;20490;-68
2024/01/30 22:45:40;;;;;;;5.07;1.50;;;;;;;-13.05;77.85;102151.47;10251968;28;20118;-68
2024/01/30 22:50:41;;;;;;;6.03;1.88;;;;;;;-13.06;78.02;102154.00;10252027;29;20046;-68
2024/01/30 22:55:42;;;;;;;7.57;1.83;;;;;;;-13.19;77.99;102153.81;10251987;29;20043;-71